Latest Weather Observations for Sheffield

IDT60801

Issued at 1:01 pm EST Tuesday 28 July 2015 (issued every 30 minutes, with the page automatically refreshed every 10 minutes)

About weather observations | Map of weather stations | Latest weather observations for TAS | Other Formats
Station Details ID: 091291 Name: SHEFFIELD SCHOOL FARM Lat: -41.39 Lon: 146.32 Height: 294.2 m
Data from the previous 72 hours. | See also: Recent months at Sheffield
Date/Time
EST
Temp
°C
App
Temp
°C
Dew
Point
Rel
Hum
%
Delta-T
°C
Wind Press
QNH
hPa
Press
MSL
hPa
Rain
since 9 am
mm
Dir
 
Spd
km/h
Gust
km/h
Spd
kts
Gust
kts
28/01:00pm 11.3 7.5 6.0 70 2.5 WSW 15 22 8 12 1026.7 1027.4 0.0
28/12:30pm 10.8 6.8 5.1 68 2.6 NW 15 20 8 11 1026.9 1027.6 0.0
28/12:00pm 10.3 6.8 5.3 71 2.3 WNW 13 19 7 10 1027.0 1027.7 0.0
28/11:30am 9.9 6.0 5.5 74 2.0 WNW 15 24 8 13 1027.2 1027.9 0.0
28/11:00am 9.4 5.6 5.6 77 1.7 WNW 15 26 8 14 1027.4 1028.1 0.0
28/10:30am 8.7 4.8 5.3 79 1.5 NW 15 20 8 11 1027.3 1028.0 0.0
28/10:00am 8.3 4.6 4.7 78 1.6 NW 13 17 7 9 1027.1 1027.8 0.0
28/09:30am 8.2 3.3 4.2 76 1.8 WNW 19 24 10 13 1027.0 1027.7 0.0
28/09:00am 8.0 3.0 3.8 75 1.8 WNW 19 24 10 13 1026.8 1027.5 1.2
28/08:30am 7.9 2.9 3.8 75 1.8 WNW 19 26 10 14 1026.4 1027.0 1.2
28/08:00am 7.8 3.5 3.5 74 1.9 WNW 15 19 8 10 1026.5 1027.1 1.2
28/07:30am 7.6 3.6 2.9 72 2.0 W 13 20 7 11 1026.0 1026.7 1.2
28/07:00am 7.7 2.6 2.8 71 2.1 W 19 24 10 13 1025.4 1026.1 1.2
28/06:30am 7.5 3.1 2.8 72 2.0 W 15 22 8 12 1025.2 1025.9 1.2
28/06:00am 7.4 3.4 2.7 72 2.0 W 13 19 7 10 1024.8 1025.5 1.2
28/05:30am 7.2 3.9 2.7 73 1.9 W 9 15 5 8 1024.4 1025.1 1.2
28/05:00am 7.5 2.4 3.0 73 1.9 W 19 33 10 18 1024.0 1024.7 1.2
28/04:30am 7.5 2.5 3.6 76 1.7 WSW 19 28 10 15 1023.4 1024.0 1.2
28/04:00am 7.0 3.1 3.4 78 1.5 W 13 22 7 12 1023.3 1023.9 1.2
28/03:30am 6.8 1.6 3.4 79 1.5 W 20 28 11 15 1023.3 1023.9 1.2
28/03:00am 6.8 2.1 3.2 78 1.5 W 17 26 9 14 1023.2 1023.8 1.2
28/02:30am 6.7 2.7 2.8 76 1.7 W 13 20 7 11 1023.4 1024.0 1.2
28/02:00am 6.9 3.2 2.6 74 1.8 WNW 11 20 6 11 1023.2 1023.8 1.2
28/01:30am 6.8 3.8 2.1 72 2.0 WNW 7 11 4 6 1022.8 1023.4 1.2
28/01:00am 6.9 3.2 2.4 73 1.9 WNW 11 17 6 9 1022.7 1023.3 1.2
28/12:30am 6.8 3.5 2.7 75 1.7 W 9 15 5 8 1022.7 1023.3 1.2
28/12:00am 6.5 3.3 2.8 77 1.6 WSW 9 15 5 8 1022.8 1023.4 1.2
 
Date/Time
EST
Temp
°C
App
Temp
°C
Dew
Point
Rel
Hum
%
Delta-T
°C
Wind Press
QNH
hPa
Press
MSL
hPa
Rain
since 9 am
mm
Dir
 
Spd
km/h
Gust
km/h
Spd
kts
Gust
kts
27/11:30pm 6.9 4.1 3.0 76 1.7 W 7 15 4 8 1022.7 1023.3 1.2
27/11:00pm 6.8 3.6 3.2 78 1.5 NW 9 13 5 7 1022.4 1023.1 1.2
27/10:30pm 5.8 3.0 3.3 84 1.1 N 7 9 4 5 1022.3 1023.0 1.2
27/10:00pm 5.6 2.8 3.4 86 0.9 NNW 7 11 4 6 1022.1 1022.8 1.2
27/09:30pm 6.0 3.3 3.5 84 1.1 N 7 13 4 7 1022.1 1022.8 1.2
27/09:00pm 6.6 3.2 3.8 82 1.2 NNW 11 17 6 9 1021.9 1022.6 1.2
27/08:30pm 6.2 2.6 3.0 80 1.4 NW 11 17 6 9 1021.8 1022.5 1.2
27/08:00pm 7.0 3.4 3.1 76 1.7 NNW 11 15 6 8 1021.6 1022.3 1.2
27/07:30pm 6.7 3.8 2.8 76 1.7 NNW 7 9 4 5 1021.6 1022.3 1.2
27/07:00pm 6.1 3.2 2.4 77 1.5 WNW 7 13 4 7 1021.3 1022.0 1.2
27/06:30pm 6.5 2.4 2.2 74 1.8 W 13 20 7 11 1021.0 1021.7 1.2
27/06:00pm 6.7 2.2 2.4 74 1.8 W 15 20 8 11 1020.7 1021.3 1.2
27/05:30pm 6.7 2.2 2.4 74 1.8 W 15 32 8 17 1020.4 1021.0 1.2
27/05:00pm 7.3 1.5 2.4 71 2.1 W 22 33 12 18 1019.9 1020.5 1.2
27/04:30pm 8.1 2.4 2.8 69 2.3 W 22 37 12 20 1019.4 1020.0 1.2
27/04:00pm 8.3 1.8 2.8 68 2.4 WSW 26 35 14 19 1019.3 1019.9 1.2
27/03:30pm 9.0 3.3 3.0 66 2.6 W 22 41 12 22 1018.9 1019.6 1.2
27/03:00pm 9.6 3.9 3.1 64 2.8 W 22 35 12 19 1018.6 1019.3 1.2
27/02:30pm 9.7 3.4 3.7 66 2.7 WSW 26 39 14 21 1018.4 1019.1 1.2
27/02:00pm 9.3 3.6 3.1 65 2.7 WSW 22 32 12 17 1018.2 1018.9 1.2
27/01:30pm 9.0 2.6 3.2 67 2.5 W 26 39 14 21 1018.1 1018.8 1.2
27/01:00pm 9.3 4.7 3.5 67 2.6 WNW 17 28 9 15 1017.8 1018.4 1.2
27/12:30pm 8.7 3.9 2.5 65 2.7 W 17 24 9 13 1017.9 1018.5 1.2
27/12:00pm 8.2 3.5 3.3 71 2.1 W 17 24 9 13 1018.0 1018.7 1.2
27/11:30am 7.9 3.1 4.5 79 1.5 WNW 19 26 10 14 1017.8 1018.4 1.2
27/11:00am 6.0 1.8 3.7 85 1.0 NW 15 22 8 12 1017.9 1018.5 1.0
27/10:30am 5.5 2.5 4.0 90 0.6 NW 9 13 5 7 1017.9 1018.5 0.8
27/10:00am 4.8 0.8 3.1 89 0.7 NW 13 19 7 10 1017.5 1018.1 0.4
27/09:30am 4.5 0.1 2.7 88 0.7 NNW 15 19 8 10 1017.5 1018.1 0.0
27/09:00am 4.1 -1.2 1.8 85 0.9 NNW 19 22 10 12 1017.1 1017.7 13.2
27/08:30am 4.0 -0.3 1.2 82 1.1 NNW 13 17 7 9 1016.9 1017.5 13.2
27/08:00am 3.6 -0.8 0.5 80 1.2 NNW 13 17 7 9 1016.7 1017.3 13.2
27/07:30am 2.8 -1.2 0.2 83 1.0 NNW 11 15 6 8 1016.1 1016.7 13.2
27/07:00am 3.3 -1.2 0.0 79 1.3 WNW 13 19 7 10 1015.6 1016.2 13.2
27/06:30am 3.9 -0.9 -0.1 75 1.5 W 15 22 8 12 1015.0 1015.6 13.2
27/06:00am 3.2 -0.6 -1.0 74 1.6 WNW 9 17 5 9 1014.5 1015.1 13.2
27/05:30am 3.7 -2.2 -0.9 72 1.7 W 20 30 11 16 1013.8 1014.4 13.2
27/05:00am 4.0 -2.3 -1.0 70 1.9 W 22 35 12 19 1013.3 1013.9 13.2
27/04:30am 4.0 -2.1 -2.2 64 2.2 W 20 37 11 20 1013.2 1013.8 13.2
27/04:00am 3.7 -3.5 -1.8 67 2.0 W 26 37 14 20 1012.0 1012.5 13.2
27/03:30am 3.9 -4.4 -1.5 68 2.0 W 32 52 17 28 1011.5 1012.1 13.2
27/03:26am 3.8 -4.5 -1.4 69 1.9 W 32 52 17 28 1011.4 1012.0 13.2
27/03:00am 3.6 -2.8 -1.9 67 2.0 W 22 33 12 18 1011.5 1012.1 13.2
27/02:30am 4.0 -2.9 -2.4 63 2.3 WSW 24 46 13 25 1011.3 1011.9 13.2
27/02:00am 3.7 -2.1 -1.6 68 1.9 WSW 19 30 10 16 1010.8 1011.4 13.2
27/01:30am 3.3 -1.7 -1.4 71 1.7 WNW 15 30 8 16 1010.3 1010.9 13.2
27/01:00am 3.9 -3.2 -1.5 68 2.0 W 26 41 14 22 1010.1 1010.7 13.2
27/12:30am 3.4 -2.0 -1.7 69 1.9 WSW 17 26 9 14 1009.5 1010.1 13.2
27/12:00am 3.5 -3.6 -0.9 73 1.6 W 26 35 14 19 1009.3 1009.8 13.2
 
Date/Time
EST
Temp
°C
App
Temp
°C
Dew
Point
Rel
Hum
%
Delta-T
°C
Wind Press
QNH
hPa
Press
MSL
hPa
Rain
since 9 am
mm
Dir
 
Spd
km/h
Gust
km/h
Spd
kts
Gust
kts
26/11:30pm 3.7 -4.4 -0.5 74 1.6 W 32 44 17 24 1008.8 1009.3 13.2
26/11:06pm 3.9 -4.4 -0.5 73 1.7 WSW 33 52 18 28 1007.9 1008.5 13.2
26/11:00pm 3.9 -5.2 -0.5 73 1.7 WSW 37 54 20 29 1007.8 1008.4 13.2
26/10:32pm 4.5 -4.1 -0.1 72 1.8 WSW 35 57 19 31 1007.4 1008.0 13.2
26/10:30pm 4.4 -3.9 -0.2 72 1.8 WSW 33 46 18 25 1007.4 1008.0 13.2
26/10:12pm 4.3 -4.3 0.1 74 1.6 WSW 35 54 19 29 1007.0 1007.6 13.2
26/10:00pm 4.4 -4.2 0.2 74 1.6 WSW 35 52 19 28 1006.8 1007.4 13.2
26/09:52pm 4.2 -4.0 0.4 76 1.5 WSW 33 52 18 28 1006.7 1007.3 13.2
26/09:30pm 4.5 -4.4 0.5 75 1.6 WSW 37 54 20 29 1006.6 1007.1 13.2
26/09:00pm 4.7 -2.8 1.0 77 1.5 WSW 30 50 16 27 1005.9 1006.4 13.2
26/08:30pm 4.6 -3.3 1.3 79 1.3 WSW 32 44 17 24 1005.4 1005.9 13.2
26/08:10pm 4.4 -3.4 1.8 83 1.0 WSW 32 50 17 27 1004.9 1005.4 13.2
26/08:00pm 4.4 -4.0 1.8 83 1.1 W 35 48 19 26 1004.6 1005.2 13.2
26/07:30pm 4.7 -3.6 2.1 83 1.1 W 35 54 19 29 1003.8 1004.4 13.2
26/07:02pm 4.8 -2.1 2.3 84 1.0 W 28 50 15 27 1003.1 1003.6 12.6
26/07:00pm 4.9 -1.6 2.4 84 1.0 W 26 46 14 25 1003.0 1003.5 12.6
26/06:30pm 5.0 -1.9 2.4 83 1.1 W 28 44 15 24 1002.0 1002.5 11.8
26/06:02pm 4.7 -3.2 2.2 84 1.0 W 33 52 18 28 1000.9 1001.5 11.2
26/06:00pm 4.6 -3.1 2.3 85 0.9 W 32 50 17 27 1001.0 1001.6 11.2
26/05:37pm 4.3 -3.5 2.0 85 0.9 W 32 50 17 27 1000.1 1000.6 10.6
26/05:30pm 4.5 -2.5 2.0 84 1.0 W 28 44 15 24 1000.1 1000.6 10.2
26/05:00pm 3.9 -3.1 1.9 87 0.8 WNW 28 43 15 23 999.3 999.8 8.4
26/04:30pm 3.7 -2.1 2.2 90 0.6 WNW 22 33 12 18 998.8 999.3 7.6
26/04:00pm 3.5 -2.7 1.9 89 0.6 WNW 24 33 13 18 998.4 998.9 6.8
26/03:30pm 3.4 -4.4 1.6 88 0.7 WNW 32 46 17 25 998.2 998.7 6.0
26/03:00pm 3.5 -3.9 1.9 89 0.6 NW 30 39 16 21 998.1 998.5 5.2
26/02:36pm 3.9 -3.5 1.9 87 0.8 NW 30 54 16 29 997.8 998.2 4.0
26/02:30pm 4.1 -2.9 2.0 86 0.8 NW 28 41 15 22 997.8 998.2 3.8
26/02:00pm 4.3 -1.0 2.8 90 0.6 WNW 20 33 11 18 998.3 998.8 3.2
26/01:30pm 4.4 -3.0 2.1 85 0.9 WNW 30 41 16 22 998.7 999.2 1.8
26/01:03pm 5.1 -1.9 2.1 81 1.2 WNW 28 50 15 27 998.6 999.1 1.6
26/01:00pm 4.9 -1.6 2.4 84 1.0 WNW 26 37 14 20 998.7 999.2 1.6
26/12:30pm 4.1 -3.7 1.8 85 0.9 WNW 32 43 17 23 999.0 999.5 1.4
26/12:00pm 3.8 -4.5 2.0 88 0.7 WNW 35 48 19 26 999.4 999.9 1.0
26/11:46am 4.2 -2.9 1.6 83 1.0 WNW 28 54 15 29 999.4 999.9 0.8
26/11:30am 4.3 -3.0 2.2 86 0.9 WNW 30 41 16 22 999.4 999.9 0.6
26/11:00am 5.6 -0.5 2.6 81 1.3 WNW 24 39 13 21 999.2 999.7 0.2
26/10:30am 4.9 -2.5 1.9 81 1.2 NW 30 41 16 22 998.9 999.4 0.2
26/10:00am 4.5 -3.4 1.0 78 1.4 WNW 32 48 17 26 999.1 999.6 0.0
26/09:44am 4.8 -3.0 1.8 81 1.2 WNW 32 52 17 28 999.1 999.6 0.0
26/09:30am 4.8 -1.8 2.3 84 1.0 WNW 26 35 14 19 998.8 999.3 0.0
26/09:00am 3.8 -1.6 2.3 90 0.6 NW 20 26 11 14 998.9 999.4 14.8
26/08:30am 3.7 -1.7 2.2 90 0.6 NW 20 30 11 16 998.8 999.3 14.8
26/08:08am 3.0 -4.9 1.2 88 0.7 WNW 32 50 17 27 998.7 999.2 14.6
26/08:00am 3.2 -6.1 0.9 85 0.9 WNW 39 52 21 28 998.7 999.2 14.6
26/07:40am 3.7 -4.1 1.6 86 0.8 NW 32 52 17 28 998.7 999.2 13.8
26/07:30am 3.9 -3.1 1.8 86 0.8 NW 28 37 15 20 998.7 999.2 13.6
26/07:00am 4.1 -3.0 1.1 81 1.2 NW 28 44 15 24 998.3 998.8 13.6
26/06:30am 3.7 -2.2 1.4 85 0.9 NW 22 32 12 17 998.3 998.8 13.6
26/06:00am 3.8 -2.5 1.4 84 1.0 NW 24 39 13 21 998.2 998.7 13.6
26/05:30am 4.3 -3.2 1.5 82 1.1 NW 30 43 16 23 998.3 998.8 13.6
26/05:00am 4.3 -4.6 1.0 79 1.3 WNW 37 52 20 28 997.8 998.2 13.4
26/04:39am 5.0 -3.5 0.8 74 1.7 NW 35 54 19 29 997.8 998.2 13.2
26/04:30am 4.8 -3.3 0.8 75 1.6 NW 33 50 18 27 997.8 998.2 13.2
26/04:00am 5.3 -1.3 2.0 79 1.4 NW 26 39 14 21 997.7 998.1 13.2
26/03:30am 5.2 -1.7 2.4 82 1.2 NW 28 48 15 26 997.8 998.2 13.2
26/03:00am 5.2 -3.2 1.7 78 1.4 WNW 35 59 19 32 997.8 998.2 13.0
26/02:52am 5.4 -1.5 2.6 82 1.2 NW 28 46 15 25 997.9 998.3 13.0
26/02:30am 5.1 -0.6 2.8 85 1.0 NW 22 37 12 20 997.9 998.3 13.0
26/02:00am 5.2 -1.3 2.7 84 1.0 NW 26 39 14 21 997.9 998.3 13.0
26/01:30am 5.3 -1.6 2.7 83 1.1 NW 28 41 15 22 998.1 998.5 13.0
26/01:00am 5.5 -0.9 3.0 84 1.1 NW 26 41 14 22 998.3 998.8 13.0
26/12:30am 5.9 -3.3 3.6 85 1.0 WNW 41 59 22 32 998.2 998.7 13.0
26/12:29am 5.9 -3.3 3.6 85 1.0 WNW 41 59 22 32 998.2 998.7 13.0
26/12:15am 6.2 -1.8 4.0 86 1.0 WNW 35 56 19 30 998.0 998.4 12.8
26/12:11am 6.1 -0.4 4.7 91 0.6 NW 28 52 15 28 998.2 998.7 12.8
26/12:00am 6.1 0.8 4.9 92 0.5 NW 22 32 12 17 998.1 998.5 12.6
 
Date/Time
EST
Temp
°C
App
Temp
°C
Dew
Point
Rel
Hum
%
Delta-T
°C
Wind Press
QNH
hPa
Press
MSL
hPa
Rain
since 9 am
mm
Dir
 
Spd
km/h
Gust
km/h
Spd
kts
Gust
kts
25/11:30pm 6.4 -0.5 4.7 89 0.8 NW 30 43 16 23 998.3 998.8 11.2
25/11:00pm 6.9 -2.4 4.9 87 0.9 WNW 43 63 23 34 998.4 998.9 10.0
25/10:50pm 7.1 -0.6 5.4 89 0.8 WNW 35 56 19 30 998.6 999.1 9.6
25/10:40pm 7.9 -0.3 6.7 92 0.6 NW 39 67 21 36 998.6 999.1 8.6
25/10:30pm 8.5 -2.2 6.6 88 0.9 NNW 52 72 28 39 998.3 998.8 6.4
25/10:01pm 8.6 -0.3 6.7 88 0.9 NNW 43 63 23 34 999.1 999.6 5.8
25/10:00pm 8.6 0.1 6.9 89 0.8 NNW 41 56 22 30 999.2 999.7 5.8
25/09:35pm 8.4 0.6 6.7 89 0.8 NNW 37 61 20 33 999.9 1000.4 5.0
25/09:30pm 8.5 1.2 7.0 90 0.7 NNW 35 50 19 27 1000.0 1000.5 4.8
25/09:00pm 8.4 1.0 6.7 89 0.8 NNW 35 54 19 29 1000.7 1001.2 3.6
25/08:40pm 8.3 1.8 6.4 88 0.9 NNW 30 50 16 27 1001.3 1001.8 3.2
25/08:30pm 8.4 1.3 6.4 87 0.9 NNW 33 46 18 25 1001.6 1002.1 3.2
25/08:00pm 7.7 3.4 6.8 94 0.4 NNW 19 30 10 16 1002.2 1002.7 2.8
25/07:30pm 7.3 2.7 6.4 94 0.4 NNW 20 33 11 18 1002.8 1003.3 2.6
25/07:00pm 6.8 4.5 5.9 94 0.4 NNW 7 9 4 5 1003.3 1003.8 1.2
25/06:30pm 6.7 3.5 5.3 91 0.6 NW 11 17 6 9 1003.8 1004.4 1.0
25/06:00pm 6.9 2.0 4.9 87 0.9 NW 20 32 11 17 1004.2 1004.8 0.6
25/05:30pm 7.0 4.0 4.3 83 1.2 NNW 9 13 5 7 1004.2 1004.8 0.2
25/05:00pm 7.4 2.8 3.8 78 1.6 NW 17 20 9 11 1004.3 1004.9 0.2
25/04:30pm 7.5 3.3 3.9 78 1.6 NNW 15 20 8 11 1004.6 1005.2 0.2
25/04:00pm 7.8 2.2 3.5 74 1.9 WNW 22 28 12 15 1004.3 1004.9 0.2
25/03:32pm 8.1 1.0 3.6 73 2.0 WNW 30 50 16 27 1004.3 1004.9 0.2
25/03:30pm 8.1 1.4 3.9 75 1.8 WNW 28 39 15 21 1004.4 1005.0 0.2
25/03:00pm 8.0 2.2 4.4 78 1.6 WNW 24 35 13 19 1004.3 1004.9 0.2
25/02:30pm 8.2 2.8 4.6 78 1.6 WNW 22 35 12 19 1004.0 1004.6 0.2
25/02:00pm 9.9 5.1 4.9 71 2.3 WNW 19 30 10 16 1003.6 1004.1 0.0
25/01:30pm 9.4 2.8 4.2 70 2.3 WNW 28 41 15 22 1003.4 1003.9 0.0

Other Formats:

Comma delimited format used in spreadsheet applications
http://www.bom.gov.au/fwo/IDT60801/IDT60801.94955.axf

JavaScript Object Notation format (JSON) in row-major order
http://www.bom.gov.au/fwo/IDT60801/IDT60801.94955.json